createdAt,value
2018-12-14T00:00:12.388Z,9.80
2018-12-14T00:02:41.215Z,9.55
2018-12-14T00:05:09.477Z,9.65
2018-12-14T00:07:37.865Z,9.83
2018-12-14T00:10:07.420Z,8.98
2018-12-14T00:12:35.727Z,8.98
2018-12-14T00:15:05.881Z,8.40
2018-12-14T00:17:34.153Z,9.70
2018-12-14T00:20:02.558Z,9.43
2018-12-14T00:22:30.707Z,9.08
2018-12-14T00:24:58.885Z,9.08
2018-12-14T00:27:27.501Z,9.50
2018-12-14T00:29:55.714Z,9.53
2018-12-14T00:32:24.878Z,8.18
2018-12-14T00:34:53.174Z,10.38
2018-12-14T00:37:21.430Z,10.45
2018-12-14T00:39:49.593Z,10.48
2018-12-14T00:42:17.970Z,9.13
2018-12-14T00:44:46.314Z,9.60
2018-12-14T00:47:14.777Z,9.70
2018-12-14T00:49:43.395Z,10.38
2018-12-14T00:52:11.603Z,9.98
2018-12-14T00:54:39.764Z,10.45
2018-12-14T00:57:08.120Z,8.88
2018-12-14T00:59:36.811Z,10.43
2018-12-14T01:02:07.286Z,11.25
2018-12-14T01:04:35.482Z,10.60
2018-12-14T01:07:03.645Z,9.75
2018-12-14T01:09:32.210Z,8.73
2018-12-14T01:12:00.516Z,10.15
2018-12-14T01:14:29.091Z,8.95
2018-12-14T01:16:57.377Z,9.10
2018-12-14T01:19:26.065Z,8.88
2018-12-14T01:21:54.359Z,9.60
2018-12-14T01:24:22.756Z,9.48
2018-12-14T01:26:50.938Z,8.98
2018-12-14T01:29:19.130Z,9.03
2018-12-14T01:31:47.410Z,10.35
2018-12-14T01:34:15.980Z,9.13
2018-12-14T01:36:44.097Z,10.10
2018-12-14T01:39:12.418Z,10.15
2018-12-14T01:41:40.628Z,8.75
2018-12-14T01:44:08.915Z,9.80
2018-12-14T01:46:37.131Z,9.78
2018-12-14T01:49:05.581Z,8.83
2018-12-14T01:51:33.956Z,8.88
2018-12-14T01:54:02.268Z,9.53
2018-12-14T01:56:31.212Z,8.43
2018-12-14T01:59:00.110Z,8.58
2018-12-14T02:01:29.081Z,9.50
2018-12-14T02:03:57.332Z,10.08
2018-12-14T02:06:25.601Z,8.30
2018-12-14T02:08:54.013Z,8.65
2018-12-14T02:11:22.556Z,7.92
2018-12-14T02:13:50.819Z,8.98
2018-12-14T02:16:19.186Z,10.30
2018-12-14T02:18:47.424Z,8.83
2018-12-14T02:21:15.654Z,8.80
2018-12-14T02:23:43.835Z,8.43
2018-12-14T02:26:12.197Z,7.80
2018-12-14T02:28:40.528Z,7.40
2018-12-14T02:31:08.754Z,9.18
2018-12-14T02:33:37.428Z,8.15
2018-12-14T02:36:05.769Z,8.53
2018-12-14T02:38:33.973Z,8.33
2018-12-14T02:41:02.209Z,7.50
2018-12-14T02:43:30.422Z,9.55
2018-12-14T02:45:59.137Z,7.95
2018-12-14T02:48:27.812Z,9.00
2018-12-14T02:50:55.929Z,9.25
2018-12-14T02:53:24.848Z,10.00
2018-12-14T02:55:53.706Z,8.88
2018-12-14T02:58:22.746Z,8.33
2018-12-14T03:00:51.486Z,9.60
2018-12-14T03:03:19.631Z,8.15
2018-12-14T03:05:48.176Z,9.75
2018-12-14T03:08:17.415Z,8.90
2018-12-14T03:10:45.674Z,9.23
2018-12-14T03:13:13.991Z,8.08
2018-12-14T03:15:42.081Z,9.83
2018-12-14T03:18:10.536Z,9.20
2018-12-14T03:20:38.797Z,8.40
2018-12-14T03:23:06.944Z,8.48
2018-12-14T03:25:35.193Z,8.75
2018-12-14T03:28:03.494Z,8.50
2018-12-14T03:30:32.330Z,8.88
2018-12-14T03:33:00.937Z,10.08
2018-12-14T03:35:29.143Z,9.03
2018-12-14T03:37:57.222Z,9.13
2018-12-14T03:40:26.132Z,9.80
2018-12-14T03:42:54.272Z,8.48
2018-12-14T03:45:22.618Z,8.05
2018-12-14T03:50:25.138Z,8.38
2018-12-14T03:52:54.390Z,7.80
2018-12-14T03:55:22.838Z,8.40
2018-12-14T03:57:52.195Z,8.45
2018-12-14T04:00:20.713Z,9.05
2018-12-14T04:02:49.046Z,8.38
2018-12-14T04:05:17.767Z,8.10
2018-12-14T04:07:46.072Z,9.18
2018-12-14T04:10:14.325Z,7.95
2018-12-14T04:12:42.598Z,9.03
2018-12-14T04:15:10.917Z,9.23
2018-12-14T04:17:39.176Z,8.58
2018-12-14T04:20:07.706Z,8.10
2018-12-14T04:22:36.122Z,8.35
2018-12-14T04:25:05.341Z,7.90
2018-12-14T04:27:33.552Z,8.40
2018-12-14T04:30:01.743Z,8.70
2018-12-14T04:32:30.780Z,9.33
2018-12-14T04:34:58.975Z,8.23
2018-12-14T04:37:27.367Z,8.68
2018-12-14T04:39:55.781Z,7.72
2018-12-14T04:42:24.327Z,8.58
2018-12-14T04:44:52.806Z,8.93
2018-12-14T04:47:20.948Z,8.60
2018-12-14T04:49:49.918Z,9.50
2018-12-14T04:52:18.577Z,8.53
2018-12-14T04:54:46.679Z,9.38
2018-12-14T04:57:14.969Z,9.63
2018-12-14T04:59:43.391Z,9.25
2018-12-14T05:02:11.633Z,10.20
2018-12-14T05:04:40.194Z,8.90
2018-12-14T05:07:08.319Z,9.20
2018-12-14T05:09:36.530Z,8.33
2018-12-14T05:12:04.690Z,8.65
2018-12-14T05:14:32.884Z,10.40
2018-12-14T05:17:01.242Z,8.53
2018-12-14T05:19:29.400Z,8.20
2018-12-14T05:21:57.960Z,9.10
2018-12-14T05:24:26.646Z,9.10
2018-12-14T05:26:55.869Z,9.90
2018-12-14T05:29:24.074Z,10.20
2018-12-14T05:31:52.221Z,8.50
2018-12-14T05:34:21.226Z,9.15
2018-12-14T05:36:49.713Z,8.43
2018-12-14T05:39:18.045Z,8.00
2018-12-14T05:41:46.221Z,8.80
2018-12-14T05:44:14.469Z,8.85
2018-12-14T05:46:42.866Z,8.80
2018-12-14T05:49:29.471Z,9.73
2018-12-14T05:51:57.866Z,9.35
2018-12-14T05:54:27.637Z,8.90
2018-12-14T05:56:56.339Z,8.98
2018-12-14T05:59:25.172Z,9.45
2018-12-14T06:01:54.462Z,8.03
2018-12-14T06:04:22.801Z,9.80
2018-12-14T06:06:51.054Z,9.50
2018-12-14T06:09:19.248Z,8.40
2018-12-14T06:11:47.587Z,9.43
2018-12-14T06:14:15.882Z,8.93
2018-12-14T06:16:44.142Z,9.35
2018-12-14T06:19:12.320Z,8.15
2018-12-14T06:21:40.443Z,8.90
2018-12-14T06:24:08.571Z,9.33
2018-12-14T06:26:37.033Z,9.18
2018-12-14T06:29:05.121Z,9.40
2018-12-14T06:31:33.674Z,9.30
2018-12-14T06:34:02.541Z,9.15
2018-12-14T06:36:30.801Z,9.68
2018-12-14T06:38:59.035Z,10.23
2018-12-14T06:41:27.961Z,9.53
2018-12-14T06:43:56.360Z,9.10
2018-12-14T06:46:24.730Z,9.78
2018-12-14T06:48:53.161Z,9.95
2018-12-14T06:51:21.409Z,10.05
2018-12-14T06:53:49.630Z,9.40
2018-12-14T06:56:17.940Z,9.10
2018-12-14T06:58:46.582Z,9.63
2018-12-14T07:01:15.893Z,10.82
2018-12-14T07:03:44.600Z,9.70
2018-12-14T07:06:12.818Z,10.00
2018-12-14T07:08:41.069Z,10.13
2018-12-14T07:11:09.387Z,9.10
2018-12-14T07:13:37.607Z,10.53
2018-12-14T07:16:05.797Z,11.57
2018-12-14T07:18:34.013Z,9.00
2018-12-14T07:21:02.373Z,10.05
2018-12-14T07:23:31.871Z,10.98
2018-12-14T07:26:00.046Z,8.98
2018-12-14T07:28:28.326Z,9.00
2018-12-14T07:30:57.070Z,8.40
2018-12-14T07:33:25.343Z,9.60
2018-12-14T07:35:53.718Z,9.33
2018-12-14T07:38:22.014Z,10.08
2018-12-14T07:40:50.187Z,8.53
2018-12-14T07:43:18.772Z,9.13
2018-12-14T07:45:47.015Z,9.73
2018-12-14T07:48:15.485Z,8.40
2018-12-14T07:50:43.729Z,9.00
2018-12-14T07:53:12.074Z,10.38
2018-12-14T07:55:40.969Z,11.75
2018-12-14T07:58:09.155Z,10.00
2018-12-14T08:00:37.749Z,11.10
2018-12-14T08:03:06.092Z,9.85
2018-12-14T08:05:34.340Z,8.28
2018-12-14T08:08:02.856Z,9.68
2018-12-14T08:10:30.961Z,10.60
2018-12-14T08:12:59.198Z,11.48
2018-12-14T08:15:28.188Z,9.65
2018-12-14T08:17:57.113Z,9.45
2018-12-14T08:20:25.321Z,9.53
2018-12-14T08:22:53.880Z,10.00
2018-12-14T08:25:22.290Z,9.90
2018-12-14T08:27:50.658Z,9.40
2018-12-14T08:30:19.413Z,8.65
2018-12-14T08:32:47.692Z,10.78
2018-12-14T08:35:15.984Z,9.13
2018-12-14T08:37:44.931Z,9.68
2018-12-14T08:40:13.405Z,9.88
2018-12-14T08:45:10.512Z,9.30
2018-12-14T08:47:38.768Z,10.95
2018-12-14T08:50:07.692Z,9.53
2018-12-14T08:52:36.281Z,9.95
2018-12-14T08:55:05.280Z,9.65
2018-12-14T08:57:33.418Z,9.30
2018-12-14T09:00:02.387Z,9.40
2018-12-14T09:02:30.649Z,9.50
2018-12-14T09:04:59.382Z,9.68
2018-12-14T09:07:28.005Z,9.40
2018-12-14T09:09:56.331Z,9.60
2018-12-14T09:12:24.557Z,8.68
2018-12-14T09:14:52.678Z,10.05
2018-12-14T09:17:20.899Z,8.88
2018-12-14T09:19:50.068Z,9.50
2018-12-14T09:22:18.425Z,9.03
2018-12-14T09:24:46.690Z,9.23
2018-12-14T09:27:14.945Z,10.20
2018-12-14T09:29:43.609Z,9.40
2018-12-14T09:32:11.758Z,9.18
2018-12-14T09:34:40.372Z,9.28
2018-12-14T09:37:08.591Z,9.53
2018-12-14T09:39:36.880Z,10.13
2018-12-14T09:42:05.326Z,9.78
2018-12-14T09:44:33.398Z,10.63
2018-12-14T09:47:01.641Z,7.90
2018-12-14T09:49:30.231Z,9.00
2018-12-14T09:51:58.380Z,8.33
2018-12-14T09:54:26.605Z,9.45
2018-12-14T09:56:55.339Z,8.38
2018-12-14T09:59:24.064Z,9.45
2018-12-14T10:01:53.112Z,9.38
2018-12-14T10:04:21.342Z,9.93
2018-12-14T10:06:49.808Z,9.98
2018-12-14T10:09:17.998Z,9.08
2018-12-14T10:11:46.160Z,9.98
2018-12-14T10:14:14.312Z,8.68
2018-12-14T10:16:43.031Z,10.25
2018-12-14T10:19:11.412Z,8.30
2018-12-14T10:21:39.530Z,8.68
2018-12-14T10:24:07.699Z,8.20
2018-12-14T10:26:35.874Z,8.90
2018-12-14T10:29:04.075Z,8.50
2018-12-14T10:31:32.370Z,9.23
2018-12-14T10:34:00.661Z,8.80
2018-12-14T10:36:29.045Z,9.80
2018-12-14T10:38:57.729Z,8.20
2018-12-14T10:41:26.457Z,8.63
2018-12-14T10:43:54.806Z,7.90
2018-12-14T10:46:23.247Z,8.63
2018-12-14T10:48:51.969Z,8.30
2018-12-14T10:51:20.984Z,9.40
2018-12-14T10:53:49.160Z,10.30
2018-12-14T10:56:17.321Z,9.00
2018-12-14T10:58:45.986Z,8.30
2018-12-14T11:01:20.149Z,9.40
2018-12-14T11:03:48.395Z,9.95
2018-12-14T11:06:16.799Z,7.42
2018-12-14T11:08:44.926Z,9.63
2018-12-14T11:11:13.117Z,8.25
2018-12-14T11:13:41.551Z,8.30
2018-12-14T11:16:09.726Z,8.35
2018-12-14T11:18:38.200Z,7.80
2018-12-14T11:21:06.335Z,8.55
2018-12-14T11:23:34.432Z,8.28
2018-12-14T11:26:02.808Z,8.65
2018-12-14T11:28:31.249Z,9.08
2018-12-14T11:30:59.803Z,8.70
2018-12-14T11:33:28.029Z,8.73
2018-12-14T11:35:56.291Z,8.88
2018-12-14T11:38:25.661Z,7.80
2018-12-14T11:40:54.101Z,7.90
2018-12-14T11:43:22.484Z,8.70
2018-12-14T11:45:51.040Z,7.33
2018-12-14T11:48:19.591Z,8.75
2018-12-14T11:50:47.933Z,8.63
2018-12-14T11:53:20.170Z,8.65
2018-12-14T11:55:49.040Z,8.73
2018-12-14T11:58:17.324Z,8.45
2018-12-14T12:00:45.988Z,9.03
2018-12-14T12:03:14.094Z,9.58
2018-12-14T12:05:42.222Z,7.92
2018-12-14T12:08:12.510Z,8.80
2018-12-14T12:10:41.101Z,9.18
2018-12-14T12:13:09.412Z,8.45
2018-12-14T12:15:37.719Z,8.80
2018-12-14T12:18:05.845Z,8.93
2018-12-14T12:20:34.095Z,8.15
2018-12-14T12:23:02.341Z,8.23
2018-12-14T12:25:31.442Z,8.20
2018-12-14T12:27:59.677Z,8.00
2018-12-14T12:30:27.884Z,8.40
2018-12-14T12:32:56.333Z,9.28
2018-12-14T12:35:25.065Z,9.35
2018-12-14T12:37:53.240Z,8.08
2018-12-14T12:40:21.827Z,8.35
2018-12-14T12:42:50.217Z,8.68
2018-12-14T12:45:18.543Z,8.93
2018-12-14T12:47:46.703Z,9.08
2018-12-14T12:50:15.129Z,9.08
2018-12-14T12:52:43.396Z,9.28
2018-12-14T12:55:11.610Z,10.30
2018-12-14T12:57:39.909Z,9.90
2018-12-14T13:00:08.629Z,9.45
2018-12-14T13:02:37.401Z,8.30
2018-12-14T13:05:05.727Z,8.00
2018-12-14T13:07:34.186Z,8.70
2018-12-14T13:10:02.439Z,8.98
2018-12-14T13:12:31.512Z,9.53
2018-12-14T13:14:59.715Z,8.48
2018-12-14T13:17:27.846Z,9.43
2018-12-14T13:19:56.425Z,9.48
2018-12-14T13:22:24.611Z,7.33
2018-12-14T13:24:52.816Z,8.95
2018-12-14T13:27:21.148Z,8.58
2018-12-14T13:29:49.367Z,9.73
2018-12-14T13:32:17.696Z,8.55
2018-12-14T13:34:45.933Z,7.83
2018-12-14T13:37:15.067Z,7.60
2018-12-14T13:39:43.206Z,9.10
2018-12-14T13:42:12.163Z,9.73
2018-12-14T13:44:46.520Z,8.05
2018-12-14T13:47:11.471Z,9.90
2018-12-14T13:49:39.836Z,8.55
2018-12-14T13:52:08.141Z,8.15
2018-12-14T13:54:36.477Z,9.28
2018-12-14T13:57:04.603Z,8.80
2018-12-14T13:59:33.285Z,7.70
2018-12-14T14:02:01.468Z,9.35
2018-12-14T14:04:30.148Z,9.08
2018-12-14T14:06:58.530Z,10.88
2018-12-14T14:09:27.110Z,9.38
2018-12-14T14:11:56.544Z,8.03
2018-12-14T14:14:25.165Z,8.13
2018-12-14T14:16:54.769Z,10.88
2018-12-14T14:19:24.381Z,8.93
2018-12-14T14:21:52.686Z,7.80
2018-12-14T14:24:21.094Z,8.10
2018-12-14T14:26:49.367Z,8.10
2018-12-14T14:29:17.654Z,7.90
2018-12-14T14:31:45.791Z,8.10
2018-12-14T14:34:14.368Z,6.45
2018-12-14T14:36:42.968Z,7.45
2018-12-14T14:39:12.126Z,8.55
2018-12-14T14:41:41.404Z,4.95
2018-12-14T14:44:09.673Z,9.20
2018-12-14T14:46:37.830Z,8.13
2018-12-14T14:49:06.564Z,8.55
2018-12-14T14:51:35.360Z,9.25
2018-12-14T14:54:03.500Z,10.03
2018-12-14T14:56:31.815Z,7.85
2018-12-14T14:59:00.869Z,8.90
2018-12-14T15:01:29.686Z,9.40
2018-12-14T15:03:58.239Z,8.03
2018-12-14T15:06:26.595Z,8.03
2018-12-14T15:08:55.504Z,8.38
2018-12-14T15:11:23.706Z,7.87
2018-12-14T15:13:52.143Z,9.00
2018-12-14T15:16:20.754Z,7.05
2018-12-14T15:18:48.954Z,8.68
2018-12-14T15:21:17.451Z,9.80
2018-12-14T15:23:45.731Z,9.13
2018-12-14T15:26:13.887Z,8.65
2018-12-14T15:28:42.113Z,10.60
2018-12-14T15:31:10.412Z,9.68
2018-12-14T15:33:38.622Z,9.10
2018-12-14T15:36:06.917Z,9.45
2018-12-14T15:38:35.603Z,8.70
2018-12-14T15:41:03.766Z,8.08
2018-12-14T15:43:32.069Z,9.08
2018-12-14T15:46:00.255Z,9.38
2018-12-14T15:48:29.714Z,8.63
2018-12-14T15:50:58.017Z,9.10
2018-12-14T15:53:27.009Z,8.68
2018-12-14T15:55:55.538Z,10.53
2018-12-14T15:58:23.753Z,8.98
2018-12-14T16:00:52.521Z,8.95
2018-12-14T16:03:20.850Z,9.20
2018-12-14T16:05:49.104Z,9.65
2018-12-14T16:08:17.504Z,10.15
2018-12-14T16:10:45.690Z,9.93
2018-12-14T16:13:14.172Z,9.30
2018-12-14T16:15:42.736Z,9.78
2018-12-14T16:18:11.115Z,9.28
2018-12-14T16:20:39.350Z,8.85
2018-12-14T16:23:07.799Z,8.28
2018-12-14T16:25:36.047Z,9.80
2018-12-14T16:28:05.637Z,9.18
2018-12-14T16:30:33.850Z,9.65
2018-12-14T16:33:02.070Z,9.88
2018-12-14T16:35:31.600Z,10.88
2018-12-14T16:37:59.859Z,9.35
2018-12-14T16:40:28.421Z,9.10
2018-12-14T16:42:56.653Z,9.88
2018-12-14T16:45:26.582Z,10.55
2018-12-14T16:47:55.026Z,11.12
2018-12-14T16:50:23.934Z,10.28
2018-12-14T16:52:52.155Z,9.93
2018-12-14T16:55:20.459Z,10.30
2018-12-14T16:57:49.783Z,9.78
2018-12-14T17:00:18.794Z,10.43
2018-12-14T17:02:46.916Z,9.45
2018-12-14T17:05:15.421Z,10.15
2018-12-14T17:07:45.045Z,9.80
2018-12-14T17:10:13.470Z,10.00
2018-12-14T17:12:41.726Z,10.08
2018-12-14T17:15:10.011Z,9.83
2018-12-14T17:17:38.492Z,9.75
2018-12-14T17:20:07.248Z,9.88
2018-12-14T17:22:35.417Z,10.32
2018-12-14T17:25:04.873Z,9.45
2018-12-14T17:27:33.131Z,9.43
2018-12-14T17:30:01.345Z,10.13
2018-12-14T17:32:30.127Z,9.45
2018-12-14T17:34:58.478Z,10.40
2018-12-14T17:37:27.153Z,10.58
2018-12-14T17:39:55.973Z,9.50
2018-12-14T17:42:24.138Z,10.58
2018-12-14T17:44:52.326Z,9.48
2018-12-14T17:47:20.589Z,10.95
2018-12-14T17:49:49.126Z,10.63
2018-12-14T17:52:17.266Z,11.08
2018-12-14T17:54:46.553Z,9.85
2018-12-14T17:57:14.717Z,9.65
2018-12-14T17:59:43.516Z,10.35
2018-12-14T18:02:11.887Z,9.80
2018-12-14T18:04:39.992Z,9.15
2018-12-14T18:07:08.576Z,11.33
2018-12-14T18:09:36.901Z,9.78
2018-12-14T18:12:05.473Z,8.45
2018-12-14T18:14:34.384Z,9.50
2018-12-14T18:17:03.867Z,10.98
2018-12-14T18:19:32.254Z,9.53
2018-12-14T18:22:00.998Z,11.25
2018-12-14T18:24:30.599Z,8.75
2018-12-14T18:26:59.398Z,9.80
2018-12-14T18:29:27.874Z,12.23
2018-12-14T18:31:56.262Z,9.13
2018-12-14T18:34:25.826Z,10.03
2018-12-14T18:36:54.448Z,10.72
2018-12-14T18:39:22.731Z,11.20
2018-12-14T18:41:51.087Z,11.28
2018-12-14T18:44:19.310Z,11.60
2018-12-14T18:46:47.767Z,9.70
2018-12-14T18:49:16.808Z,10.75
2018-12-14T18:51:45.056Z,10.70
2018-12-14T18:54:13.556Z,8.95
2018-12-14T18:56:41.727Z,8.68
2018-12-14T18:59:12.848Z,10.90
2018-12-14T19:01:41.091Z,10.90
2018-12-14T19:04:09.281Z,10.80
2018-12-14T19:06:38.156Z,9.78
2018-12-14T19:09:07.580Z,10.43
2018-12-14T19:11:36.533Z,12.35
2018-12-14T19:14:04.885Z,12.03
2018-12-14T19:16:33.485Z,9.55
2018-12-14T19:19:02.019Z,10.20
2018-12-14T19:21:31.590Z,9.70
2018-12-14T19:24:00.032Z,10.78
2018-12-14T19:26:28.755Z,10.85
2018-12-14T19:28:56.959Z,11.75
2018-12-14T19:31:25.226Z,11.12
2018-12-14T19:33:53.530Z,11.70
2018-12-14T19:36:21.667Z,11.30
2018-12-14T19:38:49.962Z,11.70
2018-12-14T19:41:18.339Z,10.10
2018-12-14T19:43:46.478Z,11.18
2018-12-14T19:46:15.368Z,10.20
2018-12-14T19:48:43.510Z,10.13
2018-12-14T19:51:12.409Z,11.15
2018-12-14T19:53:40.532Z,12.30
2018-12-14T19:56:08.711Z,11.40
2018-12-14T19:58:38.002Z,11.35
2018-12-14T20:01:06.971Z,10.63
2018-12-14T20:03:35.224Z,11.83
2018-12-14T20:06:04.265Z,10.93
2018-12-14T20:08:32.784Z,10.65
2018-12-14T20:11:01.908Z,12.43
2018-12-14T20:13:30.602Z,12.07
2018-12-14T20:16:01.198Z,10.72
2018-12-14T20:18:30.289Z,10.82
2018-12-14T20:20:58.584Z,11.30
2018-12-14T20:23:26.867Z,11.38
2018-12-14T20:25:55.206Z,11.43
2018-12-14T20:28:23.278Z,10.80
2018-12-14T20:30:51.547Z,11.30
2018-12-14T20:33:19.728Z,9.55
2018-12-14T20:35:48.226Z,10.15
2018-12-14T20:38:16.417Z,9.98
2018-12-14T20:40:44.566Z,9.68
2018-12-14T20:43:12.984Z,9.88
2018-12-14T20:45:41.490Z,10.28
2018-12-14T20:48:09.621Z,11.35
2018-12-14T20:50:37.803Z,9.63
2018-12-14T20:53:06.053Z,10.45
2018-12-14T20:55:34.558Z,12.28
2018-12-14T20:58:02.879Z,10.10
2018-12-14T21:00:31.623Z,11.60
2018-12-14T21:02:59.991Z,13.13
2018-12-14T21:05:28.971Z,9.90
2018-12-14T21:07:57.200Z,10.50
2018-12-14T21:10:25.647Z,9.65
2018-12-14T21:12:53.895Z,12.35
2018-12-14T21:15:22.958Z,11.08
2018-12-14T21:17:51.639Z,10.78
2018-12-14T21:20:19.960Z,11.95
2018-12-14T21:22:49.522Z,11.20
2018-12-14T21:25:18.319Z,11.90
2018-12-14T21:27:46.503Z,11.97
2018-12-14T21:30:14.858Z,11.65
2018-12-14T21:32:43.091Z,11.85
2018-12-14T21:35:11.348Z,10.55
2018-12-14T21:37:39.525Z,12.55
2018-12-14T21:40:07.914Z,11.78
2018-12-14T21:42:36.080Z,11.93
2018-12-14T21:45:05.555Z,12.28
2018-12-14T21:47:33.729Z,13.48
2018-12-14T21:50:02.062Z,11.10
2018-12-14T21:52:30.279Z,11.57
2018-12-14T21:54:58.588Z,10.15
2018-12-14T21:57:28.194Z,11.43
2018-12-14T21:59:56.984Z,11.20
2018-12-14T22:02:25.354Z,11.53
2018-12-14T22:04:54.329Z,10.95
2018-12-14T22:07:22.621Z,11.20
2018-12-14T22:09:50.938Z,11.20
2018-12-14T22:12:19.360Z,12.47
2018-12-14T22:14:47.642Z,10.98
2018-12-14T22:17:16.265Z,11.90
2018-12-14T22:19:44.405Z,11.50
2018-12-14T22:22:12.571Z,10.93
2018-12-14T22:24:40.850Z,9.75
2018-12-14T22:27:09.665Z,11.25
2018-12-14T22:29:38.483Z,11.73
2018-12-14T22:32:07.329Z,10.70
2018-12-14T22:34:35.533Z,9.95
2018-12-14T22:37:03.864Z,12.20
2018-12-14T22:39:32.308Z,11.63
2018-12-14T22:42:00.562Z,9.80
2018-12-14T22:44:28.880Z,11.20
2018-12-14T22:46:57.107Z,12.25
2018-12-14T22:49:26.267Z,10.88
2018-12-14T22:51:55.152Z,10.18
2018-12-14T22:54:23.373Z,12.25
2018-12-14T22:56:51.512Z,10.50
2018-12-14T22:59:20.126Z,10.78
2018-12-14T23:01:49.466Z,10.65
2018-12-14T23:04:19.864Z,11.03
2018-12-14T23:06:48.341Z,11.63
2018-12-14T23:09:16.474Z,11.10
2018-12-14T23:11:45.833Z,12.93
2018-12-14T23:14:14.891Z,11.75
2018-12-14T23:16:43.720Z,10.88
2018-12-14T23:19:11.905Z,10.90
2018-12-14T23:21:40.416Z,11.93
2018-12-14T23:24:10.193Z,11.63
2018-12-14T23:26:39.338Z,11.68
2018-12-14T23:29:08.145Z,12.33
2018-12-14T23:31:36.817Z,11.10
2018-12-14T23:34:04.990Z,10.58
2018-12-14T23:36:34.169Z,11.50
2018-12-14T23:39:02.361Z,11.75
2018-12-14T23:41:30.728Z,11.93
2018-12-14T23:43:58.802Z,11.50
2018-12-14T23:46:26.887Z,10.78
2018-12-14T23:48:55.285Z,11.30
2018-12-14T23:51:23.852Z,10.98
2018-12-14T23:53:52.073Z,11.38
2018-12-14T23:56:20.538Z,10.95
2018-12-14T23:58:48.793Z,11.03
